Tiempo atmosférico en la estación meteorológica de Beasain, Gipuzkoa (245 m.)



Fecha
DESCASC
Temp. máxima en grados centígrados (hora)
DESCASC
Temp. mínima en grados centígrados (hora)
DESCASC
Temp. media en grados centígrados
DESCASC
Racha de viento máxima en m/sg (hora)
DESCASC
Velocidad máxima media en intervalos de 10 minutos(hora)
DESCASC
Precipitaciones diarias en mm
DESCASC
Precipitaciones de 00:00 a 06:00 en mm
DESCASC
Precipitaciones de 06:00 a 12:00 en mm
DESCASC
Precipitaciones de 12:00 a 18:00 en mm
DESCASC
Precipitaciones de 18:00 a 24:00 en mm
DESCASC
25-04-2019 -- (--) -- (--) -- -- (--) -- (--) -- 2.8 -- 0 0
24-04-2019 14.6 (16:40) 7.4 (07:50) 11 20.83 (15:30) 9.72 (15:30) 8.2 0 0 0.4 7.8
23-04-2019 18.9 (13:50) 9.6 (22:40) 14.3 8.89 (14:50) 4.72 (15:40) 0.6 0 0 0.4 0.2
22-04-2019 22.2 (16:00) 8.8 (00:00) 15.5 10 (17:00) 4.72 (17:20) 0 0 0 0 0
21-04-2019 17.5 (15:30) 5.7 (00:00) 11.6 4.17 (14:50) 2.22 (12:30) 0.2 0 0 0 0.2
20-04-2019 20.4 (14:30) 8 (00:00) 14.2 9.17 (16:40) 5.28 (16:30) 0 0 0 0 0
19-04-2019 21.7 (16:50) 9.9 (00:00) 15.8 7.78 (08:00) 3.89 (07:40) 0.2 0.2 0 0 0
18-04-2019 19.5 (14:40) 11.1 (00:00) 15.3 13.33 (06:10) 6.67 (05:50) 0 0 0 0 0
17-04-2019 20.7 (18:30) 11.8 (00:00) 16.3 14.17 (09:10) 8.06 (12:00) 0 0 0 0 0
16-04-2019 21.4 (18:00) 7.3 (00:00) 14.3 5 (13:10) 2.78 (13:20) 1.2 1 0.2 0 0
15-04-2019 23 (16:40) 8.9 (00:00) 15.9 18.33 (18:00) 9.72 (18:00) 22.2 0 0 8 14.2
14-04-2019 20.6 (14:00) 7.2 (00:00) 13.9 7.22 (16:20) 4.17 (17:00) 0 0 0 0 0
13-04-2019 22.5 (17:10) 1.4 (00:00) 11.9 5.83 (17:40) 3.06 (16:30) 0 0 0 0 0
12-04-2019 15.1 (16:10) 5.2 (00:00) 10.2 8.06 (16:20) 3.89 (11:30) 0.6 0.6 0 0 0
11-04-2019 11.7 (18:20) 5.4 (00:00) 8.5 6.94 (18:00) 4.44 (18:00) 9.4 2 3.6 3.2 0.6
10-04-2019 13 (15:30) 4.4 (00:00) 8.7 8.33 (16:00) 4.72 (16:20) 6.4 0 1.6 2 2.8
09-04-2019 18.4 (16:30) 2.4 (00:00) 10.4 11.39 (16:40) 5.28 (16:40) 4.8 0 0 0.2 4.6
08-04-2019 12.8 (16:40) 5.2 (00:00) 9 7.5 (02:30) 4.17 (02:10) 12.2 0.2 4.8 7.2 0
07-04-2019 15.1 (17:40) 4.7 (00:00) 9.9 8.06 (13:10) 4.44 (13:10) 0.2 0 0.2 0 0
06-04-2019 14.5 (19:20) 4 (00:00) 9.3 11.39 (13:30) 5.83 (21:00) 4 0 0 0 4
05-04-2019 13.7 (13:50) 5.4 (00:00) 9.5 11.67 (16:10) 5.56 (16:00) 10.6 0 0 8.6 2
04-04-2019 15.4 (17:00) 1.7 (00:00) 8.5 8.33 (23:30) 3.89 (14:50) 2.8 2 0.8 0 0
03-04-2019 10.1 (14:00) 2.2 (00:00) 6.2 14.17 (20:00) 5.56 (20:10) 5.8 0.8 1.8 0.6 2.6
02-04-2019 16.4 (14:10) 7.3 (00:00) 11.8 8.61 (15:00) 4.72 (15:50) 0.8 0 0 0 0.8
01-04-2019 16.1 (16:20) 8.3 (00:00) 12.2 8.33 (01:10) 5 (01:10) 3.2 3 0.2 0 0
31-03-2019 20.9 (15:50) 5.6 (00:00) 13.2 6.67 (16:50) 3.89 (16:50) 0 0 0 0 0
30-03-2019 21.9 (16:10) 8.6 (00:00) 15.3 10.56 (11:10) 5.28 (11:00) 0 0 0 0 0
29-03-2019 21.4 (14:50) 0.9 (00:00) 11.1 10 (13:50) 5.83 (15:20) 0 0 0 0 0
28-03-2019 15.7 (16:00) 3.9 (00:00) 9.8 8.61 (16:20) 5.28 (15:00) 0 0 0 0 0
27-03-2019 15 (14:10) 0.2 (00:00) 7.6 11.11 (15:40) 5.28 (12:40) 0 0 0 0 0

Gráficas

Temp. máximas Temp. mínimas Temp. medias Precipitaciones Rachas de viento máximas Velocidades máximas media en intervalos de 10 minutos

Datos horarios

Fecha y hora oficial Temperatura (ºC) Velocidad del viento (km/h) Dirección del viento Racha (km/h) Dirección de racha Precipitación (mm) Presión (hPa) Tendencia (hPa) Humedad (%)
2019-04-25 23:00:00 11.6 11 Sudeste 38 Sudoeste 0 -- -- 57
2019-04-25 22:00:00 13.2 15 Sudeste 48 Este 0 -- -- 50
2019-04-25 21:00:00 13.8 17 Sur 44 Sur 0 -- -- 48
2019-04-25 20:00:00 14.5 14 Sudeste 36 Norte 0 -- -- 45
2019-04-25 19:00:00 15.8 10 Nordeste 37 Oeste 0 -- -- 46
2019-04-25 18:00:00 15.9 15 Sur 33 Sudeste 0 -- -- 41
2019-04-25 17:00:00 16.6 15 Sur 47 Sur 0 -- -- 41
2019-04-25 16:00:00 16.8 19 Sur 55 Sur 0 -- -- 38
2019-04-25 15:00:00 16 11 Sudoeste 36 Oeste 0 -- -- 44
2019-04-25 14:00:00 14.8 15 Sur 40 Sur 0 -- -- 43
2019-04-25 13:00:00 14.2 11 Sur 34 Noroeste 0 -- -- 53
2019-04-25 12:00:00 12.1 9 Sudoeste 33 Sur 0 -- -- 58
2019-04-25 11:00:00 12.1 7 Sur -- -- -- -- -- 55
2019-04-25 10:00:00 -- -- -- -- -- -- -- -- --
2019-04-25 09:00:00 10.7 6 Este 16 Este 0 -- -- 67
2019-04-25 08:00:00 10.1 5 Este 35 Sudeste 0 -- -- 67
2019-04-25 07:00:00 10.2 13 Sudeste 33 Sur 0.2 -- -- 64
2019-04-25 06:00:00 9 5 Sudeste 19 Este 0 -- -- 82
2019-04-25 05:00:00 8.5 6 Este 15 Este 0 -- -- 91
2019-04-25 04:00:00 9.5 9 Sudeste 19 Este 0.4 -- -- 92
2019-04-25 03:00:00 9.8 12 Norte 21 Noroeste 1.4 -- -- 98
2019-04-25 02:00:00 9.7 6 Noroeste 10 Norte 1 -- -- 96
2019-04-25 01:00:00 11.8 4 Sudeste 31 Sur 0 -- -- 80
2019-04-25 00:00:00 10.9 6 Sudeste 30 Norte 0 -- -- 86
2019-04-24 23:00:00 11 10 Nordeste 41 Oeste 0.2 -- -- 84
2019-04-24 22:00:00 10.6 8 Sudeste 31 Sudeste 1 -- -- 90
2019-04-24 21:00:00 10.4 9 Sudeste 25 Sudeste 3 -- -- 91
2019-04-24 20:00:00 10.9 14 Sur 28 Sur 3 -- -- 89
2019-04-24 19:00:00 11.8 9 Sudeste 21 Sur 0.6 -- -- 78
2019-04-24 18:00:00 12.5 13 Sudoeste 46 Sur 0.4 -- -- 74
2019-04-24 17:00:00 13.9 18 Sur 57 Sudeste 0 -- -- 58
2019-04-24 16:00:00 13.2 25 Sur 75 Sudeste 0 -- -- 59
2019-04-24 15:00:00 13.2 15 Sur 46 Este 0 -- -- 59
2019-04-24 14:00:00 12.7 20 Sudeste 53 Sudeste 0 -- -- 57
2019-04-24 13:00:00 12 28 Sur 48 Sudeste 0 -- -- 56
2019-04-24 12:00:00 11.3 22 Sur 41 Sudeste 0 -- -- 57
2019-04-24 11:00:00 11.3 12 Sur 39 Sudeste 0 -- -- 57
2019-04-24 10:00:00 10.9 14 Sur 28 Sur 0 -- -- 61
2019-04-24 09:00:00 10.4 12 Sur 31 Sur 0 -- -- 60
2019-04-24 08:00:00 7.4 5 Sur 15 Sur 0 -- -- 76
2019-04-24 07:00:00 9 7 Este 17 Sudoeste 0 -- -- 65
2019-04-24 06:00:00 8.6 6 Este 17 Sudeste 0 -- -- 70
2019-04-24 05:00:00 8.3 4 Norte 8 Norte 0 -- -- 87
2019-04-24 04:00:00 8.4 4 Sudeste 9 Norte 0 -- -- 89
2019-04-24 03:00:00 8.5 2 Este 5 Sudoeste 0 -- -- 89
2019-04-24 02:00:00 9 2 Este 13 Noroeste 0 -- -- 83
2019-04-24 01:00:00 9.2 5 Noroeste 34 Noroeste 0 -- -- 82
2019-04-24 00:00:00 10 6 Norte 11 Noroeste 0 -- -- 77
2019-04-23 23:00:00 9.9 4 Nordeste 12 Noroeste 0 -- -- 79
2019-04-23 22:00:00 9.9 2 Norte 10 Norte 0 -- -- 84
2019-04-23 21:00:00 10.7 5 Sudeste 18 Sudeste 0 -- -- 77
2019-04-23 20:00:00 12.3 5 Sur 25 Noroeste 0.2 -- -- 64
2019-04-23 19:00:00 13.5 2 Sudeste 4 Noroeste 0 -- -- 74
2019-04-23 18:00:00 13 2 Noroeste 10 Norte 0.2 -- -- 83
2019-04-23 17:00:00 13 6 Norte 28 Norte 0.2 -- -- 76
2019-04-23 16:00:00 15.5 9 Norte 30 Sur 0 -- -- 63
2019-04-23 15:00:00 17.5 15 Sudeste 32 Sudeste 0 -- -- 55
2019-04-23 14:00:00 18.6 10 Sur 20 Sudeste 0 -- -- 52
2019-04-23 13:00:00 17.3 9 Sudeste 21 Sudeste 0 -- -- 58
2019-04-23 12:00:00 16.5 6 Sur 15 Sur 0 -- -- 64
2019-04-23 11:00:00 16.1 5 Sudeste 13 Sur 0 -- -- 65
2019-04-23 10:00:00 15.7 4 Sur 22 Este 0 -- -- 67
2019-04-23 09:00:00 14.5 3 Sur 15 Este 0 -- -- 71
2019-04-23 08:00:00 12.9 5 Sudeste 17 Sudeste 0 -- -- 73
2019-04-23 07:00:00 13.3 6 Sur 28 Sudeste 0 -- -- 71
2019-04-23 06:00:00 14.3 13 Sur 26 Sudeste 0 -- -- 65
2019-04-23 05:00:00 13.9 5 Sur 16 Sudeste 0 -- -- 66
2019-04-23 04:00:00 14.8 7 Sur 28 Sudeste 0 -- -- 63
2019-04-23 03:00:00 14.9 10 Sudeste 24 Sur 0 -- -- 61
2019-04-23 02:00:00 14.1 5 Sur 16 Sur 0 -- -- 65
2019-04-23 01:00:00 14.2 5 Sur 27 Sudeste 0 -- -- 65
2019-04-23 00:00:00 15 2 Noroeste 6 Sur 0 -- -- 63
2019-04-22 23:00:00 16.2 2 Norte 8 Oeste 0 -- -- 56
2019-04-22 22:00:00 17.2 0 Calma 15 Sur 0 -- -- 54
2019-04-22 21:00:00 17.9 7 Sur 16 Sudeste 0 -- -- 51
2019-04-22 20:00:00 18.9 9 Sudeste 21 Sudeste 0 -- -- 47
2019-04-22 19:00:00 20.6 10 Sur 27 Sur 0 -- -- 44
2019-04-22 18:00:00 21.5 11 Sur 31 Sur 0 -- -- 43
2019-04-22 17:00:00 21.3 15 Sur 36 Sudeste 0 -- -- 38
2019-04-22 16:00:00 22.2 12 Sur 24 Sur 0 -- -- 38
2019-04-22 15:00:00 20.3 5 Sudeste 15 Sudeste 0 -- -- 45
2019-04-22 14:00:00 19.8 4 Sudeste 12 Este 0 -- -- 49
2019-04-22 13:00:00 18.9 4 Noroeste 10 Noroeste 0 -- -- 51
2019-04-22 12:00:00 16.8 5 Sur 8 Sur 0 -- -- 64
2019-04-22 11:00:00 14.3 4 Sur 6 Sudeste 0 -- -- 78
2019-04-22 10:00:00 10.5 4 Sur 6 Sur 0 -- -- 98
2019-04-22 09:00:00 9.2 0 Calma 4 Sur 0 -- -- 99
2019-04-22 08:00:00 8.9 0 Calma 5 Nordeste 0 -- -- 99
2019-04-22 07:00:00 9 0 Calma 6 Sudeste 0 -- -- 99
2019-04-22 06:00:00 9.3 0 Calma 3 Noroeste 0 -- -- 98
2019-04-22 05:00:00 9.5 0 Calma 3 Norte 0 -- -- 97
2019-04-22 04:00:00 9.9 0 Calma 5 Noroeste 0 -- -- 96
2019-04-22 03:00:00 10 3 Norte 4 Norte 0 -- -- 96
2019-04-22 02:00:00 10.2 3 Sudeste 8 Noroeste 0 -- -- 96
2019-04-22 01:00:00 10.4 0 Calma 5 Noroeste 0 -- -- 94
2019-04-22 00:00:00 10.5 0 Calma 3 Noroeste 0 -- -- 93
2019-04-21 23:00:00 10.6 0 Calma 10 Norte 0 -- -- 91
2019-04-21 22:00:00 11.2 6 Norte 10 Norte 0 -- -- 89
2019-04-21 21:00:00 12.2 5 Norte 12 Norte 0 -- -- 85
2019-04-21 20:00:00 12.4 3 Noroeste 12 Nordeste 0 -- -- 91
2019-04-21 19:00:00 14.8 5 Este 14 Nordeste 0.2 -- -- 71
2019-04-21 18:00:00 16.1 5 Este 14 Oeste 0 -- -- 63
2019-04-21 17:00:00 16.3 5 Este 9 Nordeste 0 -- -- 61
2019-04-21 16:00:00 16.6 5 Norte 15 Noroeste 0 -- -- 62
2019-04-21 15:00:00 16.7 4 Noroeste 15 Noroeste 0 -- -- 63
2019-04-21 14:00:00 16.5 6 Noroeste 11 Oeste 0 -- -- 62
2019-04-21 13:00:00 14.8 3 Sudoeste 13 Sur 0 -- -- 66
2019-04-21 12:00:00 13 5 Sur 10 Sudeste 0 -- -- 69
2019-04-21 11:00:00 11 3 Sudeste 8 Sudeste 0 -- -- 84
2019-04-21 10:00:00 8.9 3 Sur 6 Sudeste 0 -- -- 92
2019-04-21 09:00:00 6.7 2 Noroeste 6 Sudeste 0 -- -- 99
2019-04-21 08:00:00 5.8 0 Calma 4 Sudeste 0 -- -- 99
2019-04-21 07:00:00 5.8 2 Este 8 Este 0 -- -- 98
2019-04-21 06:00:00 6.3 2 Sudeste 5 Sudeste 0 -- -- 97
2019-04-21 05:00:00 6.9 0 Calma 6 Sudeste 0 -- -- 95
2019-04-21 04:00:00 7.5 2 Noroeste 9 Norte 0 -- -- 93
2019-04-21 03:00:00 8.2 5 Norte 10 Sudeste 0 -- -- 91
2019-04-21 02:00:00 8.7 2 Nordeste 8 Nordeste 0 -- -- 88
2019-04-21 01:00:00 9.1 4 Noroeste 10 Norte 0 -- -- 83
2019-04-21 00:00:00 10.6 3 Noroeste 5 Noroeste 0 -- -- 78
2019-04-20 23:00:00 12.1 4 Norte 7 Norte 0 -- -- 72
2019-04-20 22:00:00 13.8 4 Noroeste 14 Norte 0 -- -- 69
2019-04-20 21:00:00 14.7 7 Norte 20 Norte 0 -- -- 68
2019-04-20 20:00:00 15.5 8 Noroeste 24 Oeste 0 -- -- 66
2019-04-20 19:00:00 17.5 13 Noroeste 29 Norte 0 -- -- 62
2019-04-20 18:00:00 18.9 14 Norte 29 Norte 0 -- -- 57
2019-04-20 17:00:00 19.4 15 Norte 33 Norte 0 -- -- 54
2019-04-20 16:00:00 20.1 16 Norte 29 Noroeste 0 -- -- 56
2019-04-20 15:00:00 20.2 15 Norte 26 Norte 0 -- -- 56
2019-04-20 14:00:00 20 10 Noroeste 23 Norte 0 -- -- 51
2019-04-20 13:00:00 19.2 10 Noroeste 24 Noroeste 0 -- -- 54
2019-04-20 12:00:00 18 8 Norte 17 Noroeste 0 -- -- 58
2019-04-20 11:00:00 16.7 4 Sur 8 Sudeste 0 -- -- 71
2019-04-20 10:00:00 13.1 3 Sur 5 Sur 0 -- -- 86
2019-04-20 09:00:00 9.5 2 Sur 5 Sudeste 0 -- -- 99
2019-04-20 08:00:00 8.3 0 Calma 6 Norte 0 -- -- 99
2019-04-20 07:00:00 8.3 3 Sudeste 8 Sudeste 0 -- -- 99
2019-04-20 06:00:00 8 2 Norte 4 Sudeste 0 -- -- 98
2019-04-20 05:00:00 8.6 0 Calma 5 Sudeste 0 -- -- 97
2019-04-20 04:00:00 9 0 Calma 4 Norte 0 -- -- 96
2019-04-20 03:00:00 9.5 3 Noroeste 5 Noroeste 0 -- -- 95
2019-04-20 02:00:00 10.2 2 Sudeste 5 Sudeste 0 -- -- 93
2019-04-20 01:00:00 11.2 0 Calma 4 Norte 0 -- -- 89
2019-04-20 00:00:00 12.2 2 Norte 5 Norte 0 -- -- 85
2019-04-19 23:00:00 13.3 0 Calma 5 Norte 0 -- -- 79
2019-04-19 22:00:00 14.7 4 Norte 8 Noroeste 0 -- -- 73
2019-04-19 21:00:00 16.2 4 Noroeste 14 Nordeste 0 -- -- 66
2019-04-19 20:00:00 18.8 9 Norte 19 Norte 0 -- -- 57
2019-04-19 19:00:00 20.8 9 Noroeste 18 Noroeste 0 -- -- 53
2019-04-19 18:00:00 20.8 12 Norte 22 Noroeste 0 -- -- 54
2019-04-19 17:00:00 21.7 8 Noroeste 20 Noroeste 0 -- -- 54
2019-04-19 16:00:00 20.5 5 Oeste 9 Oeste 0 -- -- 57
2019-04-19 15:00:00 17.8 2 Este 6 Sudeste 0 -- -- 61
2019-04-19 14:00:00 17.5 0 Calma 7 Este 0 -- -- 62
2019-04-19 13:00:00 16.8 4 Sudeste 8 Sudeste 0 -- -- 62
2019-04-19 12:00:00 16 2 Sur 9 Sur 0 -- -- 62
2019-04-19 11:00:00 14.5 4 Sudeste 8 Este 0 -- -- 72
2019-04-19 10:00:00 13.1 0 Calma 5 Noroeste 0 -- -- 77
2019-04-19 09:00:00 12.4 3 Sudeste 19 Sur 0 -- -- 79
2019-04-19 08:00:00 13.6 14 Sur 28 Sudeste 0 -- -- 66
2019-04-19 07:00:00 13 6 Este 19 Sur 0 -- -- 67
2019-04-19 06:00:00 11.8 8 Sudeste 19 Sur 0 -- -- 77
2019-04-19 05:00:00 10.5 6 Este 15 Norte 0 -- -- 94
2019-04-19 04:00:00 10 6 Sudeste 13 Este 0 -- -- 98
2019-04-19 03:00:00 10.1 6 Norte 12 Noroeste 0.2 -- -- 96
2019-04-19 02:00:00 10.2 2 Norte 8 Sur 0 -- -- 93
2019-04-19 01:00:00 10.5 3 Norte 11 Norte 0 -- -- 92
2019-04-19 00:00:00 11.1 3 Noroeste 9 Noroeste 0 -- -- 90
2019-04-18 23:00:00 12.2 2 Noroeste 8 Noroeste 0 -- -- 86
2019-04-18 22:00:00 13 3 Noroeste 12 Norte 0 -- -- 84
2019-04-18 21:00:00 13.4 4 Norte 15 Noroeste 0 -- -- 81
2019-04-18 20:00:00 14.2 4 Norte 13 Norte 0 -- -- 82
2019-04-18 19:00:00 15 8 Norte 17 Noroeste 0 -- -- 79
2019-04-18 18:00:00 15.4 7 Norte 16 Norte 0 -- -- 77
2019-04-18 17:00:00 16.4 5 Norte 17 Noroeste 0 -- -- 73
2019-04-18 16:00:00 16.8 6 Noroeste 18 Noroeste 0 -- -- 72
2019-04-18 15:00:00 18.9 11 Sur 18 Sur 0 -- -- 56
2019-04-18 14:00:00 17.2 4 Norte 14 Sudoeste 0 -- -- 59
2019-04-18 13:00:00 14.2 6 Sur 26 Sudeste 0 -- -- 73
2019-04-18 12:00:00 14.9 14 Sudeste 37 Sudeste 0 -- -- 62
2019-04-18 11:00:00 15 21 Sudeste 44 Sur 0 -- -- 63
2019-04-18 10:00:00 15.3 8 Sudeste 27 Sudeste 0 -- -- 61
2019-04-18 09:00:00 15.3 11 Sudeste 28 Sudeste 0 -- -- 58
2019-04-18 08:00:00 15 6 Noroeste 18 Noroeste 0 -- -- 58
2019-04-18 07:00:00 15.1 7 Oeste 48 Sur 0 -- -- 56
2019-04-18 06:00:00 15.4 21 Sur 47 Sudeste 0 -- -- 57
2019-04-18 05:00:00 15.3 17 Sur 38 Sudoeste 0 -- -- 56
2019-04-18 04:00:00 15.6 14 Sur 35 Sudeste 0 -- -- 52
2019-04-18 03:00:00 15.8 8 Norte 20 Sudoeste 0 -- -- 50
2019-04-18 02:00:00 16.2 6 Norte 17 Este 0 -- -- 56
2019-04-18 01:00:00 17.4 5 Norte 31 Sudeste 0 -- -- 53
2019-04-18 00:00:00 17.9 6 Oeste 37 Sur 0 -- -- 55
2019-04-17 23:00:00 18.4 6 Norte 24 Sudeste 0 -- -- 55
2019-04-17 22:00:00 18.6 4 Norte 19 Sudeste 0 -- -- 57
2019-04-17 21:00:00 19.5 9 Sur 27 Sur 0 -- -- 53
2019-04-17 20:00:00 20.2 18 Sur 41 Sur 0 -- -- 51
2019-04-17 19:00:00 20.6 10 Sur 30 Sur 0 -- -- 46
2019-04-17 18:00:00 20.3 5 Sudeste 40 Sudeste 0 -- -- 49
2019-04-17 17:00:00 20.2 18 Sur 39 Sur 0 -- -- 49
2019-04-17 16:00:00 19.4 11 Sur 46 Sur 0 -- -- 49
2019-04-17 15:00:00 18.4 19 Sur 51 Sudeste 0 -- -- 52
2019-04-17 14:00:00 17.6 13 Sur 34 Sudeste 0 -- -- 54
2019-04-17 13:00:00 16.6 24 Sur 47 Sudeste 0 -- -- 54
2019-04-17 12:00:00 15.2 29 Sur 51 Sur 0 -- -- 58
2019-04-17 11:00:00 14.7 23 Sur 45 Sudeste 0 -- -- 59
2019-04-17 10:00:00 14.7 23 Sur 51 Sur 0 -- -- 60
2019-04-17 09:00:00 14.3 21 Sur 43 Sudeste 0 -- -- 60
2019-04-17 08:00:00 13.9 20 Sur 46 Sur 0 -- -- 60
2019-04-17 07:00:00 14.2 9 Sur 28 Sudeste 0 -- -- 60
2019-04-17 06:00:00 14.6 4 Sudoeste 35 Sudeste 0 -- -- 58
2019-04-17 05:00:00 15.4 17 Sur 34 Sudeste 0 -- -- 55
2019-04-17 04:00:00 15.9 13 Sur 31 Sudeste 0 -- -- 55
2019-04-17 03:00:00 16.1 10 Sur 31 Sudeste 0 -- -- 56
2019-04-17 02:00:00 16 5 Sudeste 26 Sur 0 -- -- 58
2019-04-17 01:00:00 15.7 7 Sudeste 20 Sur 0 -- -- 61
2019-04-17 00:00:00 11.8 4 Norte 8 Noroeste 0 -- -- 78
2019-04-16 23:00:00 11.9 2 Oeste 9 Norte 0 -- -- 80
2019-04-16 22:00:00 13.3 3 Norte 6 Noroeste 0 -- -- 76
2019-04-16 21:00:00 15.3 3 Noroeste 9 Sudoeste 0 -- -- 70
2019-04-16 20:00:00 18.5 3 Noroeste 8 Noroeste 0 -- -- 64
2019-04-16 19:00:00 20 4 Noroeste 12 Este 0 -- -- 61
2019-04-16 18:00:00 21.4 4 Oeste 18 Este 0 -- -- 50
2019-04-16 17:00:00 20.8 4 Sudeste 15 Sur 0 -- -- 46
2019-04-16 16:00:00 20.4 7 Sur 15 Sur 0 -- -- 51
2019-04-16 15:00:00 19.1 8 Sur 14 Sudeste 0 -- -- 47
2019-04-16 14:00:00 17.3 5 Sudoeste 18 Sur 0 -- -- 50
2019-04-16 13:00:00 15.7 7 Sur 13 Sudeste 0 -- -- 64
2019-04-16 12:00:00 13.3 4 Sudeste 10 Sudoeste 0 -- -- 89
2019-04-16 11:00:00 10.8 4 Sur 8 Sur 0 -- -- 100
2019-04-16 10:00:00 8.9 3 Sur 5 Sur 0 -- -- 100
2019-04-16 09:00:00 8.2 3 Noroeste 6 Noroeste 0.2 -- -- 100
2019-04-16 08:00:00 7.6 4 Norte 7 Nordeste 0 -- -- 100
2019-04-16 07:00:00 7.4 3 Norte 7 Norte 0 -- -- 100
2019-04-16 06:00:00 8.1 4 Norte 6 Norte 0 -- -- 100
2019-04-16 05:00:00 9.7 0 Calma 4 Noroeste 0 -- -- 100
2019-04-16 04:00:00 10 0 Calma 4 Norte 0 -- -- 100
2019-04-16 03:00:00 10 3 Norte 6 Norte 0 -- -- 100
2019-04-16 02:00:00 10.5 0 Calma 3 Noroeste 0.2 -- -- 100
2019-04-16 01:00:00 10.9 2 Sudoeste 5 Este 0.8 -- -- 100
2019-04-16 00:00:00 11.1 0 Calma 4 Este 1.4 -- -- 100
2019-04-15 23:00:00 11.2 0 Calma 5 Nordeste 1.4 -- -- 100
2019-04-15 22:00:00 11.1 4 Sudeste 9 Este 1.2 -- -- 100
2019-04-15 21:00:00 11.2 2 Sudeste 14 Noroeste 4.4 -- -- 100
2019-04-15 20:00:00 11.7 7 Oeste 22 Oeste 2.6 -- -- 100
2019-04-15 19:00:00 12.4 2 Sur 24 Nordeste 3.2 -- -- 100
2019-04-15 18:00:00 13.1 35 Norte 66 Norte 8 -- -- 93
2019-04-15 17:00:00 22.2 15 Sudeste 38 Sudeste 0 -- -- 50
2019-04-15 16:00:00 21.3 7 Sur 27 Sur 0 -- -- 54
2019-04-15 15:00:00 21.6 17 Sur 39 Sur 0 -- -- 52
2019-04-15 14:00:00 21.1 10 Sudeste 41 Sudeste 0 -- -- 54
2019-04-15 13:00:00 21.1 16 Sur 38 Sudeste 0 -- -- 54
2019-04-15 12:00:00 20.6 15 Sur 36 Sudeste 0 -- -- 56
2019-04-15 11:00:00 18.3 16 Sur 33 Sur 0 -- -- 65
2019-04-15 10:00:00 12.4 4 Norte 7 Norte 0 -- -- 100
2019-04-15 09:00:00 9.6 2 Sudeste 7 Noroeste 0 -- -- 100
2019-04-15 08:00:00 9 2 Noroeste 6 Noroeste 0 -- -- 100
2019-04-15 07:00:00 9 2 Sur 4 Este 0 -- -- 100
2019-04-15 06:00:00 9.1 0 Calma 8 Sudeste 0 -- -- 100
2019-04-15 05:00:00 9.4 0 Calma 5 Norte 0 -- -- 100
2019-04-15 04:00:00 9.6 5 Sudeste 8 Sudeste 0 -- -- 99
2019-04-15 03:00:00 9.9 4 Norte 6 Noroeste 0 -- -- 98
2019-04-15 02:00:00 10.5 0 Calma 5 Noroeste 0 -- -- 97
2019-04-15 01:00:00 11.2 2 Norte 5 Noroeste 0 -- -- 97
2019-04-15 00:00:00 11.8 4 Noroeste 6 Noroeste 0 -- -- 94
2019-04-14 23:00:00 12.9 2 Norte 6 Noroeste 0 -- -- 92
2019-04-14 22:00:00 14 2 Norte 6 Noroeste 0 -- -- 88
2019-04-14 21:00:00 15.7 4 Norte 8 Sudoeste 0 -- -- 82
2019-04-14 20:00:00 17.6 0 Calma 10 Sudeste 0 -- -- 76
2019-04-14 19:00:00 18.4 3 Sudoeste 16 Nordeste 0 -- -- 70
2019-04-14 18:00:00 18.3 8 Norte 23 Nordeste 0 -- -- 66
2019-04-14 17:00:00 19.2 15 Norte 26 Norte 0 -- -- 57
2019-04-14 16:00:00 20.1 8 Norte 18 Nordeste 0 -- -- 53
2019-04-14 15:00:00 19.8 5 Norte 17 Norte 0 -- -- 48
2019-04-14 14:00:00 20.6 5 Oeste 17 Noroeste 0 -- -- 41
2019-04-14 13:00:00 19 9 Norte 22 Norte 0 -- -- 44
2019-04-14 12:00:00 17.4 4 Sudeste 8 Sudeste 0 -- -- 51
2019-04-14 11:00:00 13.8 4 Sudeste 6 Este 0 -- -- 64
2019-04-14 10:00:00 10.8 0 Calma 5 Sudeste 0 -- -- 75
2019-04-14 09:00:00 8.9 0 Calma 4 Sudeste 0 -- -- 84
2019-04-14 08:00:00 8 2 Nordeste 6 Sudeste 0 -- -- 86
2019-04-14 07:00:00 7.5 5 Sudeste 6 Sudeste 0 -- -- 85
2019-04-14 06:00:00 7.4 2 Sudeste 4 Sur 0 -- -- 83
2019-04-14 05:00:00 7.4 0 Calma 5 Noroeste 0 -- -- 82
2019-04-14 04:00:00 7.2 0 Calma 3 Este 0 -- -- 80
2019-04-14 03:00:00 7.6 0 Calma 4 Este 0 -- -- 77
2019-04-14 02:00:00 7.9 0 Calma 4 Sudeste 0 -- -- 71
2019-04-14 01:00:00 8.4 0 Calma 4 Noroeste 0 -- -- 69
2019-04-14 00:00:00 8.9 0 Calma 4 Noroeste 0 -- -- 67
2019-04-13 23:00:00 10.4 0 Calma 4 Norte 0 -- -- 61
2019-04-13 22:00:00 12.1 2 Norte 10 Noroeste 0 -- -- 53
2019-04-13 21:00:00 14.9 5 Norte 15 Norte 0 -- -- 45
2019-04-13 20:00:00 18.1 9 Norte 17 Norte 0 -- -- 40
2019-04-13 19:00:00 21.6 3 Oeste 12 Noroeste 0 -- -- 33
2019-04-13 18:00:00 22.1 8 Oeste 21 Oeste 0 -- -- 30
2019-04-13 17:00:00 22.4 9 Sur 18 Sudeste 0 -- -- 24
2019-04-13 16:00:00 21.9 6 Sudeste 17 Sudeste 0 -- -- 17
2019-04-13 15:00:00 21 9 Sur 17 Sur 0 -- -- 19
2019-04-13 14:00:00 19.1 8 Sur 13 Sur 0 -- -- 30
2019-04-13 13:00:00 15.9 6 Sur 12 Sudoeste 0 -- -- 44
2019-04-13 12:00:00 11.8 4 Sudeste 9 Sudeste 0 -- -- 70
2019-04-13 11:00:00 6.2 4 Sur 7 Sur 0 -- -- 100
2019-04-13 10:00:00 2.8 3 Sudoeste 6 Sur 0 -- -- 100
2019-04-13 09:00:00 1.7 4 Sur 6 Sur 0 -- -- 100
2019-04-13 08:00:00 1.4 3 Sudeste 5 Sur 0 -- -- 100
2019-04-13 07:00:00 1.6 0 Calma 6 Sudeste 0 -- -- 100
2019-04-13 06:00:00 2.1 2 Sudeste 5 Noroeste 0 -- -- 100
2019-04-13 05:00:00 2.1 0 Calma 5 Sudeste 0 -- -- 100
2019-04-13 04:00:00 2.5 0 Calma 7 Sudeste 0 -- -- 99
2019-04-13 03:00:00 3 2 Sudeste 3 Sudeste 0 -- -- 99
2019-04-13 02:00:00 3.6 0 Calma 4 Este 0 -- -- 98
2019-04-13 01:00:00 4.5 0 Calma 3 Noroeste 0 -- -- 96
2019-04-13 00:00:00 5.2 0 Calma 4 Noroeste 0 -- -- 94
2019-04-12 23:00:00 6.4 0 Calma 9 Norte 0 -- -- 90
2019-04-12 22:00:00 7.8 4 Norte 15 Norte 0 -- -- 85
2019-04-12 21:00:00 9.6 7 Norte 15 Norte 0 -- -- 78
2019-04-12 20:00:00 11.7 9 Noroeste 20 Noroeste 0 -- -- 67
2019-04-12 19:00:00 13.9 12 Noroeste 22 Noroeste 0 -- -- 60
2019-04-12 18:00:00 15 12 Noroeste 25 Noroeste 0 -- -- 54
2019-04-12 17:00:00 14.9 11 Noroeste 29 Noroeste 0 -- -- 52
2019-04-12 16:00:00 14.8 10 Norte 24 Norte 0 -- -- 52
2019-04-12 15:00:00 14.8 9 Norte 23 Norte 0 -- -- 54
2019-04-12 14:00:00 13.9 11 Norte 27 Norte 0 -- -- 58
2019-04-12 13:00:00 13.6 7 Noroeste 21 Noroeste 0 -- -- 62
2019-04-12 12:00:00 12.1 11 Noroeste 23 Norte 0 -- -- 75
2019-04-12 11:00:00 10.5 8 Norte 21 Norte 0 -- -- 83
2019-04-12 10:00:00 9.6 10 Noroeste 18 Noroeste 0 -- -- 89
2019-04-12 09:00:00 7.6 3 Norte 11 Norte 0 -- -- 100
2019-04-12 08:00:00 7 0 Calma 13 Norte 0 -- -- 99
2019-04-12 07:00:00 7.7 9 Norte 13 Norte 0 -- -- 100
2019-04-12 06:00:00 7.6 5 Norte 9 Norte 0.2 -- -- 100
2019-04-12 05:00:00 7.6 3 Norte 9 Noroeste 0 -- -- 100
2019-04-12 04:00:00 7.6 3 Noroeste 8 Oeste 0.2 -- -- 100
2019-04-12 03:00:00 7.4 0 Calma 3 Norte 0 -- -- 100
2019-04-12 02:00:00 7.4 0 Calma 5 Norte 0.2 -- -- 100
2019-04-12 01:00:00 7.3 3 Norte 5 Norte 0 -- -- 99
2019-04-12 00:00:00 7.7 3 Noroeste 7 Norte 0.4 -- -- 98
2019-04-11 23:00:00 7.8 6 Noroeste 17 Noroeste 0.2 -- -- 96
2019-04-11 22:00:00 7.3 9 Norte 13 Norte 0 -- -- 95
2019-04-11 21:00:00 8.6 2 Norte 12 Noroeste 0 -- -- 88
2019-04-11 20:00:00 10.2 5 Norte 18 Norte 0 -- -- 85
2019-04-11 19:00:00 10.9 6 Norte 24 Norte 0 -- -- 79
2019-04-11 18:00:00 11.3 16 Noroeste 25 Noroeste 0 -- -- 79
2019-04-11 17:00:00 11.4 8 Noroeste 23 Noroeste 0 -- -- 91
2019-04-11 16:00:00 10.1 8 Noroeste 15 Noroeste 1.4 -- -- 93
2019-04-11 15:00:00 10.4 8 Noroeste 20 Noroeste 0 -- -- 90
2019-04-11 14:00:00 9.3 9 Noroeste 15 Noroeste 1.8 -- -- 96
2019-04-11 13:00:00 10.4 5 Noroeste 10 Norte 0 -- -- 91
2019-04-11 12:00:00 9 3 Oeste 12 Este 1 -- -- 100
2019-04-11 11:00:00 8.5 3 Noroeste 6 Noroeste 1 -- -- 100
2019-04-11 10:00:00 6.6 4 Norte 11 Este 1.4 -- -- 100
2019-04-11 09:00:00 5.7 2 Sudeste 6 Sudeste 0 -- -- 100
2019-04-11 08:00:00 5.5 0 Calma 6 Sudeste 0 -- -- 100
2019-04-11 07:00:00 5.7 0 Calma 5 Norte 0.2 -- -- 100
2019-04-11 06:00:00 6.1 0 Calma 4 Norte 0 -- -- 100
2019-04-11 05:00:00 6.7 2 Noroeste 4 Norte 0 -- -- 100
2019-04-11 04:00:00 7.3 0 Calma 7 Sudeste 0.2 -- -- 100
2019-04-11 03:00:00 7.4 0 Calma 8 Noroeste 1.2 -- -- 100
2019-04-11 02:00:00 7.3 3 Noroeste 8 Noroeste 0.2 -- -- 100
2019-04-11 01:00:00 7.1 0 Calma 9 Este 0.4 -- -- 100
2019-04-11 00:00:00 7 4 Norte 8 Norte 1.8 -- -- 100
2019-04-10 23:00:00 6.4 2 Sudeste 10 Norte 0 -- -- 98
2019-04-10 22:00:00 7.8 0 Calma 10 Norte 0 -- -- 95
2019-04-10 21:00:00 9.1 3 Noroeste 6 Nordeste 0.2 -- -- 96
2019-04-10 20:00:00 9.6 3 Norte 15 Norte 0.6 -- -- 94
2019-04-10 19:00:00 9.9 8 Norte 30 Norte 0.2 -- -- 87
2019-04-10 18:00:00 11.4 14 Norte 27 Noroeste 0 -- -- 72
2019-04-10 17:00:00 11.4 8 Oeste 29 Noroeste 0 -- -- 77
2019-04-10 16:00:00 12.1 15 Noroeste 30 Noroeste 0 -- -- 72
2019-04-10 15:00:00 11.6 11 Noroeste 24 Noroeste 0 -- -- 80
2019-04-10 14:00:00 11.4 3 Este 9 Noroeste 0 -- -- 80
2019-04-10 13:00:00 8.7 3 Sudoeste 8 Sudeste 2 -- -- 100
2019-04-10 12:00:00 7.5 0 Calma 6 Sudeste 1.6 -- -- 100
2019-04-10 11:00:00 6.8 4 Sudeste 6 Sur 0 -- -- 100
2019-04-10 10:00:00 5.4 2 Sur 6 Sur 0 -- -- 100
2019-04-10 09:00:00 4.7 4 Sudeste 6 Sudeste 0 -- -- 100
2019-04-10 08:00:00 4.4 3 Noroeste 4 Norte 0 -- -- 100
2019-04-10 07:00:00 4.8 3 Norte 5 Sudeste 0 -- -- 100
2019-04-10 06:00:00 5.1 2 Este 5 Este 0 -- -- 100
2019-04-10 05:00:00 5.5 3 Sudeste 4 Sudeste 0 -- -- 100
2019-04-10 04:00:00 5.8 0 Calma 5 Sudeste 0 -- -- 100
2019-04-10 03:00:00 5.9 0 Calma 4 Este 0 -- -- 100
2019-04-10 02:00:00 6.2 0 Calma 5 Este 0 -- -- 100
2019-04-10 01:00:00 6.5 0 Calma 8 Noroeste 0 -- -- 100
2019-04-10 00:00:00 7 6 Norte 10 Norte 0 -- -- 99
2019-04-09 23:00:00 7.3 0 Calma 5 Sudeste 0.2 -- -- 99
2019-04-09 22:00:00 7.5 2 Norte 5 Sudeste 0.6 -- -- 98
2019-04-09 21:00:00 7.9 2 Sur 26 Norte 1 -- -- 94
2019-04-09 20:00:00 8.6 16 Noroeste 32 Noroeste 1.6 -- -- 91
2019-04-09 19:00:00 9.4 9 Noroeste 18 Noroeste 1.2 -- -- 91
2019-04-09 18:00:00 11 7 Noroeste 29 Norte 0.2 -- -- 85
2019-04-09 17:00:00 14.5 14 Norte 41 Noroeste 0 -- -- 57
2019-04-09 16:00:00 17.3 9 Sur 20 Noroeste 0 -- -- 50
2019-04-09 15:00:00 15.6 5 Noroeste 22 Norte 0 -- -- 52
2019-04-09 14:00:00 15.4 7 Norte 32 Sudeste 0 -- -- 50
2019-04-09 13:00:00 15.7 10 Sudeste 28 Sur 0 -- -- 49
2019-04-09 12:00:00 14.1 6 Noroeste 34 Oeste 0 -- -- 59
2019-04-09 11:00:00 12.8 4 Sur 12 Sur 0 -- -- 68
2019-04-09 10:00:00 9 3 Norte 9 Norte 0 -- -- 100
2019-04-09 09:00:00 4.5 3 Sudeste 10 Sudeste 0 -- -- 100
2019-04-09 08:00:00 2.4 3 Noroeste 8 Sudeste 0 -- -- 100
2019-04-09 07:00:00 2.5 4 Norte 6 Oeste 0 -- -- 100
2019-04-09 06:00:00 2.9 5 Sudeste 12 Noroeste 0 -- -- 100
2019-04-09 05:00:00 3.5 4 Norte 9 Norte 0 -- -- 100
2019-04-09 04:00:00 3.6 3 Sur 6 Sudeste 0 -- -- 100
2019-04-09 03:00:00 4.2 0 Calma 3 Norte 0 -- -- 100
2019-04-09 02:00:00 4.2 3 Sudeste 5 Sudeste 0 -- -- 100
2019-04-09 01:00:00 4.7 0 Calma 5 Sudeste 0 -- -- 100
2019-04-09 00:00:00 5.2 2 Norte 6 Noroeste 0 -- -- 99
2019-04-08 23:00:00 5.8 2 Norte 5 Noroeste 0 -- -- 98
2019-04-08 22:00:00 6.6 3 Noroeste 7 Noroeste 0 -- -- 96
2019-04-08 21:00:00 7.6 5 Norte 10 Norte 0 -- -- 94
2019-04-08 20:00:00 9.8 2 Noroeste 7 Noroeste 0 -- -- 93
2019-04-08 19:00:00 10.9 5 Norte 8 Nordeste 0 -- -- 91
2019-04-08 18:00:00 11.3 4 Nordeste 12 Sudeste 0.2 -- -- 90
2019-04-08 17:00:00 12.7 4 Sur 12 Sur 0 -- -- 83
2019-04-08 16:00:00 11.5 2 Sudoeste 8 Norte 1.4 -- -- 91
2019-04-08 15:00:00 11.4 4 Norte 13 Norte 0.6 -- -- 88
2019-04-08 14:00:00 10.8 3 Noroeste 8 Norte 3.2 -- -- 94
2019-04-08 13:00:00 10.3 2 Sudoeste 9 Sudeste 1.8 -- -- 96
2019-04-08 12:00:00 9.7 2 Noroeste 9 Sudeste 4.4 -- -- 97
2019-04-08 11:00:00 10.2 2 Sudoeste 4 Sur 0.2 -- -- 95
2019-04-08 10:00:00 9.7 3 Noroeste 9 Sudeste 0 -- -- 96
2019-04-08 09:00:00 9.3 5 Norte 8 Noroeste 0.2 -- -- 96
2019-04-08 08:00:00 9.1 3 Norte 8 Norte 0 -- -- 93
2019-04-08 07:00:00 8.8 5 Norte 8 Norte 0 -- -- 95
2019-04-08 06:00:00 9.7 2 Nordeste 9 Norte 0.2 -- -- 80
2019-04-08 05:00:00 9.5 5 Norte 8 Noroeste 0 -- -- 78
2019-04-08 04:00:00 9.7 2 Norte 9 Noroeste 0 -- -- 74
2019-04-08 03:00:00 10.7 4 Noroeste 27 Sudeste 0 -- -- 67
2019-04-08 02:00:00 10.5 8 Sur 22 Sudeste 0 -- -- 63
2019-04-08 01:00:00 9.4 4 Sudeste 8 Este 0 -- -- 77
2019-04-08 00:00:00 9.2 3 Norte 15 Nordeste 0 -- -- 76
2019-04-07 23:00:00 8.3 5 Noroeste 11 Oeste 0 -- -- 85
2019-04-07 22:00:00 9.2 3 Norte 6 Noroeste 0 -- -- 82
2019-04-07 21:00:00 9.9 3 Norte 7 Norte 0 -- -- 77
2019-04-07 20:00:00 12.9 2 Nordeste 8 Sur 0 -- -- 66
2019-04-07 19:00:00 14.4 3 Sur 12 Sur 0 -- -- 55
2019-04-07 18:00:00 14.8 2 Sudeste 17 Sudeste 0 -- -- 50
2019-04-07 17:00:00 14.6 10 Sudeste 19 Sur 0 -- -- 55
2019-04-07 16:00:00 14.1 5 Noroeste 18 Noroeste 0 -- -- 54
2019-04-07 15:00:00 12.6 6 Noroeste 21 Norte 0 -- -- 58
2019-04-07 14:00:00 11.6 10 Noroeste 29 Noroeste 0 -- -- 65
2019-04-07 13:00:00 11.6 9 Norte 22 Norte 0 -- -- 72
2019-04-07 12:00:00 10.1 6 Norte 10 Norte 0 -- -- 78
2019-04-07 11:00:00 7.8 2 Noroeste 4 Norte 0 -- -- 98
2019-04-07 10:00:00 6.5 2 Norte 4 Noroeste 0 -- -- 100
2019-04-07 09:00:00 6 3 Norte 5 Norte 0 -- -- 100
2019-04-07 08:00:00 5.4 2 Este 4 Este 0.2 -- -- 100
2019-04-07 07:00:00 5 0 Calma 4 Noroeste 0 -- -- 100
2019-04-07 06:00:00 4.7 2 Noroeste 9 Noroeste 0 -- -- 100
2019-04-07 05:00:00 5.1 3 Noroeste 6 Noroeste 0 -- -- 100
2019-04-07 04:00:00 5.8 3 Norte 4 Norte 0 -- -- 100
2019-04-07 03:00:00 6 0 Calma 5 Norte 0 -- -- 100
2019-04-07 02:00:00 6.2 2 Noroeste 5 Noroeste 0 -- -- 100
2019-04-07 01:00:00 5.9 0 Calma 7 Noroeste 0 -- -- 100
2019-04-07 00:00:00 6.1 2 Norte 6 Noroeste 0 -- -- 99
2019-04-06 23:00:00 6.4 3 Norte 5 Noroeste 0 -- -- 98
2019-04-06 22:00:00 6.4 0 Calma 35 Noroeste 4 -- -- 95
2019-04-06 21:00:00 9.9 21 Noroeste 37 Oeste 0 -- -- 74
2019-04-06 20:00:00 12.3 9 Sudeste 21 Sur 0 -- -- 56
2019-04-06 19:00:00 13.7 5 Sur 21 Sur 0 -- -- 48
2019-04-06 18:00:00 14.1 10 Sur 31 Sur 0 -- -- 46
2019-04-06 17:00:00 13.6 9 Sur 23 Sudoeste 0 -- -- 46
2019-04-06 16:00:00 13.9 8 Sur 34 Sur 0 -- -- 46
2019-04-06 15:00:00 13 15 Sur 37 Sur 0 -- -- 50
2019-04-06 14:00:00 13.4 15 Sur 41 Sur 0 -- -- 47
2019-04-06 13:00:00 13.2 10 Sur 36 Oeste 0 -- -- 50
2019-04-06 12:00:00 11.7 8 Sur 19 Norte 0 -- -- 56
2019-04-06 11:00:00 11.1 5 Sur 9 Este 0 -- -- 61
2019-04-06 10:00:00 7.3 6 Norte 9 Nordeste 0 -- -- 89
2019-04-06 09:00:00 4 3 Norte 8 Norte 0 -- -- 100
2019-04-06 08:00:00 4.5 0 Calma 4 Nordeste 0 -- -- 100
2019-04-06 07:00:00 5.1 2 Noroeste 7 Norte 0 -- -- 100
2019-04-06 06:00:00 5.2 2 Sur 6 Norte 0 -- -- 100
2019-04-06 05:00:00 5.1 0 Calma 8 Sudeste 0 -- -- 100
2019-04-06 04:00:00 5 5 Noroeste 8 Noroeste 0 -- -- 100
2019-04-06 03:00:00 5.2 2 Norte 3 Norte 0 -- -- 100
2019-04-06 02:00:00 5.2 0 Calma 4 Noroeste 0 -- -- 100
2019-04-06 01:00:00 5.3 0 Calma 5 Norte 0 -- -- 100
2019-04-06 00:00:00 5.4 0 Calma 5 Norte 0 -- -- 99
2019-04-05 23:00:00 5.7 4 Norte 6 Norte 0 -- -- 99
2019-04-05 22:00:00 6.2 3 Noroeste 8 Norte 0 -- -- 99
2019-04-05 21:00:00 6.3 0 Calma 6 Noroeste 1.2 -- -- 99
2019-04-05 20:00:00 6.5 0 Calma 6 Noroeste 0.8 -- -- 98
2019-04-05 19:00:00 6.7 2 Nordeste 10 Sudoeste 0 -- -- 95
2019-04-05 18:00:00 6.9 3 Sudoeste 6 Nordeste 3.6 -- -- 97
2019-04-05 17:00:00 6.6 6 Noroeste 42 Noroeste 5 -- -- 95
2019-04-05 16:00:00 11.3 20 Norte 37 Norte 0 -- -- 61
2019-04-05 15:00:00 13.2 15 Sur 33 Sur 0 -- -- 56
2019-04-05 14:00:00 13.6 14 Sur 41 Sudeste 0 -- -- 58
2019-04-05 13:00:00 11.9 17 Sur 33 Sudeste 0 -- -- 60
2019-04-05 12:00:00 11.4 12 Sur 38 Sudeste 0 -- -- 62
2019-04-05 11:00:00 11.5 12 Sur 24 Sudoeste 0 -- -- 58
2019-04-05 10:00:00 10.6 7 Sur 18 Sudoeste 0 -- -- 60
2019-04-05 09:00:00 10.2 6 Sur 25 Sudeste 0 -- -- 55
2019-04-05 08:00:00 10.2 6 Sur 26 Sur 0 -- -- 53
2019-04-05 07:00:00 10.6 14 Sur 33 Sudeste 0 -- -- 49
2019-04-05 06:00:00 9.3 3 Nordeste 9 Sudeste 0 -- -- 50
2019-04-05 05:00:00 9.7 5 Sudeste 13 Sudeste 0 -- -- 51
2019-04-05 04:00:00 9.4 3 Sudeste 10 Oeste 0 -- -- 55
2019-04-05 03:00:00 9.4 3 Sur 10 Sudeste 0 -- -- 55
2019-04-05 02:00:00 9.8 3 Sudeste 13 Sudeste 0 -- -- 53
2019-04-05 01:00:00 11 3 Norte 22 Sur 0 -- -- 49
2019-04-05 00:00:00 11.9 9 Sudeste 30 Sudeste 0 -- -- 42
2019-04-04 23:00:00 11 3 Sudeste 19 Sudeste 0 -- -- 48
2019-04-04 22:00:00 10.2 4 Sudoeste 10 Sur 0 -- -- 59
2019-04-04 21:00:00 11.9 3 Norte 13 Sudeste 0 -- -- 48
2019-04-04 20:00:00 13.4 5 Sudeste 24 Sudeste 0 -- -- 40
2019-04-04 19:00:00 14.3 10 Sur 26 Sur 0 -- -- 32
2019-04-04 18:00:00 14.6 8 Sudeste 23 Sur 0 -- -- 34
2019-04-04 17:00:00 15.4 7 Sur 24 Sur 0 -- -- 37
2019-04-04 16:00:00 14.3 9 Sur 24 Sudeste 0 -- -- 36
2019-04-04 15:00:00 12.7 12 Sudeste 27 Sudeste 0 -- -- 41
2019-04-04 14:00:00 11 7 Sur 19 Sur 0 -- -- 51
2019-04-04 13:00:00 9.9 8 Noroeste 16 Norte 0 -- -- 57
2019-04-04 12:00:00 9.5 9 Sur 15 Sur 0 -- -- 67
2019-04-04 11:00:00 6 6 Sudeste 10 Sudeste 0 -- -- 87
2019-04-04 10:00:00 3.7 2 Sudeste 5 Nordeste 0 -- -- 100
2019-04-04 09:00:00 2.3 4 Norte 8 Norte 0 -- -- 100
2019-04-04 08:00:00 2 0 Calma 6 Norte 0 -- -- 100
2019-04-04 07:00:00 2.5 3 Norte 4 Noroeste 0.8 -- -- 100
2019-04-04 06:00:00 2.4 4 Noroeste 9 Norte 0.2 -- -- 100
2019-04-04 05:00:00 2.2 2 Noroeste 6 Sudeste 0.4 -- -- 100
2019-04-04 04:00:00 1.9 0 Calma 6 Este 0 -- -- 100
2019-04-04 03:00:00 2 2 Sudeste 12 Norte 1 -- -- 99
2019-04-04 02:00:00 2.1 2 Sudeste 8 Noroeste 0.4 -- -- 99
2019-04-04 01:00:00 1.9 3 Norte 8 Nordeste 0 -- -- 99
2019-04-04 00:00:00 2.3 3 Noroeste 7 Norte 1 -- -- 98
2019-04-03 23:00:00 2.2 3 Nordeste 8 Este 0 -- -- 96
2019-04-03 22:00:00 3 5 Sudoeste 28 Oeste 1.4 -- -- 91
2019-04-03 21:00:00 3.7 3 Sudeste 44 Norte 0.2 -- -- 91
2019-04-03 20:00:00 6.5 15 Norte 51 Norte 0 -- -- 70
2019-04-03 19:00:00 7.8 11 Noroeste 29 Noroeste 0 -- -- 62
2019-04-03 18:00:00 7.6 14 Noroeste 33 Noroeste 0 -- -- 68
2019-04-03 17:00:00 8.6 11 Noroeste 31 Noroeste 0.2 -- -- 68
2019-04-03 16:00:00 6.9 12 Noroeste 41 Norte 0 -- -- 84
2019-04-03 15:00:00 7.6 9 Noroeste 37 Noroeste 0.4 -- -- 78
2019-04-03 14:00:00 10.1 15 Noroeste 42 Noroeste 0 -- -- 66
2019-04-03 13:00:00 8.9 16 Norte 33 Norte 0 -- -- 72
2019-04-03 12:00:00 7.6 15 Norte 28 Norte 0 -- -- 77
2019-04-03 11:00:00 7.2 3 Norte 12 Norte 0 -- -- 85
2019-04-03 10:00:00 6.1 6 Noroeste 24 Noroeste 0.2 -- -- 93
2019-04-03 09:00:00 6.2 4 Noroeste 21 Noroeste 0.6 -- -- 95
2019-04-03 08:00:00 6.6 4 Noroeste 13 Norte 0.4 -- -- 99
2019-04-03 07:00:00 6.7 2 Oeste 5 Noroeste 0.6 -- -- 99
2019-04-03 06:00:00 6.8 0 Calma 6 Norte 0 -- -- 99
2019-04-03 05:00:00 7 2 Norte 9 Noroeste 0 -- -- 97
2019-04-03 04:00:00 7.3 6 Norte 18 Noroeste 0 -- -- 92
2019-04-03 03:00:00 7.7 14 Noroeste 23 Norte 0.2 -- -- 93
2019-04-03 02:00:00 8 2 Oeste 15 Noroeste 0 -- -- 95
2019-04-03 01:00:00 8.4 8 Noroeste 14 Norte 0.6 -- -- 95
2019-04-03 00:00:00 9 5 Noroeste 8 Noroeste 0.4 -- -- 96
2019-04-02 23:00:00 9.5 3 Noroeste 6 Noroeste 0.2 -- -- 96
2019-04-02 22:00:00 9.9 2 Norte 11 Norte 0.2 -- -- 94
2019-04-02 21:00:00 10.6 6 Norte 10 Noroeste 0 -- -- 87
2019-04-02 20:00:00 11.3 8 Norte 19 Norte 0 -- -- 78
2019-04-02 19:00:00 11.9 8 Norte 22 Norte 0 -- -- 74
2019-04-02 18:00:00 13.8 7 Noroeste 28 Norte 0 -- -- 71
2019-04-02 17:00:00 14.6 10 Norte 28 Noroeste 0 -- -- 70
2019-04-02 16:00:00 14.6 12 Norte 27 Noroeste 0 -- -- 66
2019-04-02 15:00:00 15.8 17 Noroeste 31 Norte 0 -- -- 62
2019-04-02 14:00:00 15.7 9 Norte 20 Norte 0 -- -- 57
2019-04-02 13:00:00 14.2 13 Noroeste 28 Norte 0 -- -- 65
2019-04-02 12:00:00 13.3 6 Noroeste 21 Noroeste 0 -- -- 71
2019-04-02 11:00:00 12.6 12 Noroeste 18 Noroeste 0 -- -- 74
2019-04-02 10:00:00 10.4 4 Sudeste 6 Sur 0 -- -- 92
2019-04-02 09:00:00 7.4 5 Sudeste 7 Sudeste 0 -- -- 99
2019-04-02 08:00:00 7.6 0 Calma 4 Sudeste 0 -- -- 98
2019-04-02 07:00:00 8.2 3 Noroeste 5 Norte 0 -- -- 97
2019-04-02 06:00:00 9.2 0 Calma 3 Sudeste 0 -- -- 94
2019-04-02 05:00:00 9.6 3 Sudeste 6 Sudeste 0 -- -- 94
2019-04-02 04:00:00 9.7 2 Norte 7 Este 0 -- -- 93
2019-04-02 03:00:00 10.9 5 Este 12 Noroeste 0 -- -- 90
2019-04-02 02:00:00 11.3 4 Noroeste 15 Noroeste 0 -- -- 88
2019-04-02 01:00:00 11.5 0 Calma 5 Noroeste 0 -- -- 89
2019-04-02 00:00:00 11.9 2 Norte 4 Norte 0 -- -- 85
2019-04-01 23:00:00 12.2 0 Calma 4 Noroeste 0 -- -- 82
2019-04-01 22:00:00 12.4 0 Calma 6 Noroeste 0 -- -- 80
2019-04-01 21:00:00 13 3 Noroeste 6 Norte 0 -- -- 74
2019-04-01 20:00:00 14.4 3 Norte 6 Norte 0 -- -- 72
2019-04-01 19:00:00 15.4 2 Sur 11 Sudeste 0 -- -- 63
2019-04-01 18:00:00 15.5 4 Sudeste 15 Sudeste 0 -- -- 60
2019-04-01 17:00:00 15.5 13 Sudeste 21 Sur 0 -- -- 60
2019-04-01 16:00:00 15.9 13 Sur 23 Sur 0 -- -- 59
2019-04-01 15:00:00 15.1 12 Sur 24 Sur 0 -- -- 60
2019-04-01 14:00:00 15.8 8 Sudeste 17 Sur 0 -- -- 60
2019-04-01 13:00:00 14.5 4 Sur 12 Sudeste 0 -- -- 65
2019-04-01 12:00:00 13.4 3 Sudeste 7 Sudeste 0 -- -- 75
2019-04-01 11:00:00 11.3 2 Sudeste 5 Este 0 -- -- 89
2019-04-01 10:00:00 9.3 0 Calma 4 Sur 0 -- -- 100
2019-04-01 09:00:00 8.5 0 Calma 4 Noroeste 0 -- -- 100
2019-04-01 08:00:00 8.4 0 Calma 4 Este 0 -- -- 100
2019-04-01 07:00:00 8.3 0 Calma 3 Norte 0.2 -- -- 99
2019-04-01 06:00:00 8.4 0 Calma 4 Noroeste 0 -- -- 99
2019-04-01 05:00:00 8.5 3 Norte 5 Noroeste 0 -- -- 99
2019-04-01 04:00:00 8.6 3 Noroeste 12 Noroeste 1.2 -- -- 98
2019-04-01 03:00:00 8.9 6 Noroeste 11 Noroeste 1.4 -- -- 95
2019-04-01 02:00:00 10.5 8 Sudeste 30 Sudeste 0.4 -- -- 80
2019-04-01 01:00:00 13.5 15 Sudeste 26 Sudeste 0 -- -- 50
2019-04-01 00:00:00 13.3 9 Sur 17 Sur 0 -- -- 56
2019-03-31 23:00:00 12.4 0 Calma 5 Norte 0 -- -- 60
2019-03-31 22:00:00 13.1 2 Norte 7 Norte 0 -- -- 59
2019-03-31 21:00:00 14.4 3 Noroeste 13 Noroeste 0 -- -- 54
2019-03-31 20:00:00 15.9 5 Noroeste 15 Noroeste 0 -- -- 50
2019-03-31 19:00:00 17.4 9 Norte 21 Noroeste 0 -- -- 46
2019-03-31 18:00:00 18.7 6 Noroeste 22 Noroeste 0 -- -- 42
2019-03-31 17:00:00 18.7 13 Norte 24 Nordeste 0 -- -- 42
2019-03-31 16:00:00 20.7 9 Sur 20 Sur 0 -- -- 32
2019-03-31 15:00:00 20.4 6 Sur 16 Sur 0 -- -- 36
2019-03-31 14:00:00 19.3 5 Sudeste 11 Sudeste 0 -- -- 38
2019-03-31 13:00:00 18.4 5 Sur 12 Sur 0 -- -- 44
2019-03-31 12:00:00 16.2 3 Oeste 6 Noroeste 0 -- -- 51
2019-03-31 11:00:00 13.5 0 Calma 5 Sudeste 0 -- -- 65
2019-03-31 10:00:00 9.7 0 Calma 3 Noroeste 0 -- -- 76
2019-03-31 09:00:00 5.9 0 Calma 8 Sudeste 0 -- -- 87
2019-03-31 08:00:00 5.9 0 Calma 6 Sudeste 0 -- -- 85
2019-03-31 07:00:00 6.4 3 Noroeste 7 Norte 0 -- -- 82
2019-03-31 06:00:00 7 4 Norte 8 Norte 0 -- -- 78
2019-03-31 05:00:00 6.5 2 Norte 9 Este 0 -- -- 79
2019-03-31 03:00:00 7 2 Noroeste 5 Noroeste 0 -- -- 78
2019-03-31 01:00:00 7.7 0 Calma 5 Noroeste 0 -- -- 73
2019-03-31 00:00:00 8.6 2 Noroeste 5 Noroeste 0 -- -- 69
2019-03-30 23:00:00 9.5 0 Calma 5 Oeste 0 -- -- 66
2019-03-30 22:00:00 10.7 3 Noroeste 6 Noroeste 0 -- -- 62
2019-03-30 21:00:00 12.3 3 Noroeste 7 Noroeste 0 -- -- 57
2019-03-30 20:00:00 14.6 5 Norte 8 Noroeste 0 -- -- 48
2019-03-30 19:00:00 18.3 5 Sur 17 Sur 0 -- -- 36
2019-03-30 18:00:00 20.8 9 Sur 19 Sur 0 -- -- 31
2019-03-30 17:00:00 21.5 8 Sudoeste 23 Sur 0 -- -- 31
2019-03-30 16:00:00 21.8 9 Sur 23 Sur 0 -- -- 29
2019-03-30 15:00:00 21.6 9 Sur 27 Sudeste 0 -- -- 33
2019-03-30 14:00:00 20.3 14 Sur 29 Sudeste 0 -- -- 34
2019-03-30 13:00:00 19 15 Sur 32 Sudeste 0 -- -- 37
2019-03-30 12:00:00 17.4 11 Sur 38 Sudeste 0 -- -- 39
2019-03-30 11:00:00 15.6 19 Sur 35 Sudeste 0 -- -- 41
2019-03-30 10:00:00 14.5 16 Sur 34 Sudeste 0 -- -- 42
2019-03-30 09:00:00 13 14 Sur 35 Sudeste 0 -- -- 45
2019-03-30 08:00:00 11.1 10 Sur 32 Sur 0 -- -- 50
2019-03-30 07:00:00 10.8 5 Sur 23 Sudeste 0 -- -- 48
2019-03-30 06:00:00 11.5 9 Sur 26 Sudeste 0 -- -- 45
2019-03-30 05:00:00 12.2 12 Sur 32 Este 0 -- -- 42
2019-03-30 04:00:00 12.6 7 Sudeste 17 Este 0 -- -- 40
2019-03-30 03:00:00 12.7 4 Norte 12 Este 0 -- -- 43
2019-03-30 02:00:00 13.8 4 Este 19 Este 0 -- -- 42
2019-03-30 01:00:00 13.9 4 Este 16 Este 0 -- -- 45
2019-03-30 00:00:00 14.4 3 Sudoeste 21 Sudoeste 0 -- -- 45
2019-03-29 23:00:00 14.8 4 Noroeste 29 Este 0 -- -- 44
2019-03-29 22:00:00 15.2 4 Oeste 16 Sudeste 0 -- -- 40
2019-03-29 21:00:00 15 5 Noroeste 24 Este 0 -- -- 40
2019-03-29 20:00:00 17 4 Sur 24 Sudeste 0 -- -- 33
2019-03-29 19:00:00 18.5 11 Sur 30 Sur 0 -- -- 30
2019-03-29 18:00:00 20.2 13 Sur 32 Sudeste 0 -- -- 29
2019-03-29 17:00:00 21.1 11 Sur 31 Sur 0 -- -- 29
2019-03-29 16:00:00 20.6 15 Sur 35 Sudeste 0 -- -- 29
2019-03-29 15:00:00 21 13 Sur 28 Sur 0 -- -- 30
2019-03-29 14:00:00 20.2 13 Sur 36 Sudeste 0 -- -- 34
2019-03-29 13:00:00 19.5 13 Sudoeste 30 Sur 0 -- -- 34
2019-03-29 12:00:00 17.3 19 Sur 31 Sudeste 0 -- -- 36
2019-03-29 11:00:00 16.1 12 Sur 24 Sudeste 0 -- -- 39
2019-03-29 10:00:00 11.9 4 Sur 13 Sudeste 0 -- -- 63
2019-03-29 09:00:00 4.8 3 Norte 6 Norte 0 -- -- 99
2019-03-29 08:00:00 1.3 0 Calma 5 Norte 0 -- -- 100
2019-03-29 07:00:00 0.9 2 Este 9 Sudeste 0 -- -- 100
2019-03-29 06:00:00 1.2 3 Sudeste 6 Sudeste 0 -- -- 99
2019-03-29 05:00:00 1.7 0 Calma 3 Norte 0 -- -- 99
2019-03-29 04:00:00 2.1 4 Sudeste 6 Sudeste 0 -- -- 98
2019-03-29 03:00:00 2.7 0 Calma 4 Norte 0 -- -- 97
2019-03-29 02:00:00 3.2 0 Calma 7 Sudeste 0 -- -- 96
2019-03-29 01:00:00 3.8 3 Sudeste 5 Sudeste 0 -- -- 95
2019-03-29 00:00:00 4.7 2 Norte 5 Norte 0 -- -- 93
2019-03-28 23:00:00 5.5 4 Noroeste 8 Norte 0 -- -- 90
2019-03-28 22:00:00 6.6 4 Norte 9 Noroeste 0 -- -- 86
2019-03-28 21:00:00 8.3 5 Norte 14 Norte 0 -- -- 77
2019-03-28 20:00:00 9.4 11 Norte 26 Norte 0 -- -- 72
2019-03-28 19:00:00 11.2 14 Norte 24 Norte 0 -- -- 65
2019-03-28 18:00:00 13.6 15 Noroeste 29 Noroeste 0 -- -- 50
2019-03-28 17:00:00 15 16 Noroeste 31 Noroeste 0 -- -- 50
2019-03-28 16:00:00 15.7 13 Noroeste 30 Noroeste 0 -- -- 52
2019-03-28 15:00:00 15.2 19 Noroeste 30 Norte 0 -- -- 53
2019-03-28 14:00:00 15.1 18 Noroeste 30 Noroeste 0 -- -- 53
2019-03-28 13:00:00 13.8 12 Noroeste 23 Noroeste 0 -- -- 58
2019-03-28 12:00:00 13.5 12 Noroeste 24 Noroeste 0 -- -- 60
2019-03-28 11:00:00 12.2 9 Noroeste 18 Noroeste 0 -- -- 67
2019-03-28 10:00:00 11.3 6 Noroeste 12 Norte 0 -- -- 77
2019-03-28 09:00:00 7.2 3 Sur 6 Sudeste 0 -- -- 96
2019-03-28 08:00:00 4.5 0 Calma 3 Sudeste 0 -- -- 100
2019-03-28 07:00:00 4 0 Calma 4 Noroeste 0 -- -- 99
2019-03-28 06:00:00 4.1 0 Calma 5 Este 0 -- -- 98
2019-03-28 05:00:00 4.1 3 Sudeste 8 Sudeste 0 -- -- 97
2019-03-28 04:00:00 4.6 0 Calma 6 Sudeste 0 -- -- 95
2019-03-28 03:00:00 4.8 4 Sudeste 6 Este 0 -- -- 93
2019-03-28 02:00:00 4.6 0 Calma 5 Este 0 -- -- 94
2019-03-28 01:00:00 4.6 2 Noroeste 6 Noroeste 0 -- -- 93
2019-03-28 00:00:00 5.1 0 Calma 5 Sudeste 0 -- -- 89
2019-03-27 23:00:00 6.1 4 Norte 8 Noroeste 0 -- -- 85
2019-03-27 22:00:00 7.5 0 Calma 3 Sur 0 -- -- 79
2019-03-27 21:00:00 8 0 Calma 6 Noroeste 0 -- -- 77
2019-03-27 20:00:00 8.2 5 Norte 19 Norte 0 -- -- 74
2019-03-27 19:00:00 9.2 9 Norte 24 Noroeste 0 -- -- 67
2019-03-27 18:00:00 11.7 14 Noroeste 27 Noroeste 0 -- -- 57
2019-03-27 17:00:00 13.3 16 Norte 30 Norte 0 -- -- 50
2019-03-27 16:00:00 13.7 15 Norte 40 Norte 0 -- -- 41
2019-03-27 15:00:00 14.6 16 Norte 30 Noroeste 0 -- -- 41
2019-03-27 14:00:00 14.9 12 Norte 30 Noroeste 0 -- -- 40
2019-03-27 13:00:00 13.5 17 Noroeste 31 Noroeste 0 -- -- 47
2019-03-27 12:00:00 12.6 14 Noroeste 27 Noroeste 0 -- -- 52
2019-03-27 11:00:00 11.2 4 Este 13 Sur 0 -- -- 62
2019-03-27 10:00:00 8.4 4 Sudeste 9 Sudeste 0 -- -- 74
2019-03-27 09:00:00 4.1 4 Sur 5 Sudeste 0 -- -- 99
2019-03-27 08:00:00 0.8 2 Norte 7 Sudeste 0 -- -- 100
2019-03-27 07:00:00 0.5 4 Sudeste 5 Sudeste 0 -- -- 99
2019-03-27 06:00:00 1.1 0 Calma 4 Noroeste 0 -- -- 99
2019-03-27 05:00:00 1.5 0 Calma 8 Sudeste 0 -- -- 98
2019-03-27 04:00:00 1.7 5 Sudeste 9 Sudeste 0 -- -- 98
2019-03-27 03:00:00 2.3 3 Norte 5 Sudeste 0 -- -- 96
2019-03-27 02:00:00 3 0 Calma 5 Noroeste 0 -- -- 96
2019-03-27 01:00:00 3.5 3 Norte 9 Este 0 -- -- 93
2019-03-27 00:00:00 4.2 3 Noroeste 6 Noroeste 0 -- -- 92